<?xml version='1.0' encoding='UTF-8'?><gpx version="1.1" creator="JPX - https://github.com/jenetics/jpx" xmlns="http://www.topografix.com/GPX/1/1"><trk><trkseg><trkpt lat="42.1553328767443" lon="12.131975882996427"><ele>409.99999999999994</ele><time>2026-04-26T13:36:34Z</time></trkpt><trkpt lat="42.1552922981233" lon="12.13190295182312"><ele>410.0</ele><time>2026-04-26T13:36:39Z</time></trkpt><trkpt lat="42.15520843891833" lon="12.131775730408608"><ele>410.0</ele><time>2026-04-26T13:36:49Z</time></trkpt><trkpt lat="42.1551505827218" lon="12.131732985232034"><ele>410.0</ele><time>2026-04-26T13:36:52Z</time></trkpt><trkpt lat="42.15509022400173" lon="12.13166466541573"><ele>409.99999999999994</ele><time>2026-04-26T13:36:58Z</time></trkpt><trkpt lat="42.155057727508414" lon="12.131583653436573"><ele>410.0</ele><time>2026-04-26T13:37:03Z</time></trkpt><trkpt lat="42.15501045976015" lon="12.13152291479828"><ele>410.0</ele><time>2026-04-26T13:37:09Z</time></trkpt><trkpt lat="42.15495977378473" lon="12.131447388916452"><ele>410.0</ele><time>2026-04-26T13:37:15Z</time></trkpt><trkpt lat="42.15491197300082" lon="12.131383108593317"><ele>410.0</ele><time>2026-04-26T13:37:20Z</time></trkpt><trkpt lat="42.15486296589962" lon="12.131329662918553"><ele>410.0</ele><time>2026-04-26T13:37:25Z</time></trkpt><trkpt lat="42.15481411098989" lon="12.131258148209838"><ele>410.0</ele><time>2026-04-26T13:37:30Z</time></trkpt><trkpt lat="42.1547762276675" lon="12.131187726565926"><ele>410.0</ele><time>2026-04-26T13:37:36Z</time></trkpt><trkpt lat="42.154713645108075" lon="12.131132078466383"><ele>410.0</ele><time>2026-04-26T13:37:40.999Z</time></trkpt><trkpt lat="42.154679592690464" lon="12.131049678090495"><ele>410.0</ele><time>2026-04-26T13:37:44.999Z</time></trkpt><trkpt lat="42.15465646684112" lon="12.13096410689626"><ele>410.0</ele><time>2026-04-26T13:37:51.999Z</time></trkpt><trkpt lat="42.15461926029051" lon="12.130885340968646"><ele>410.0</ele><time>2026-04-26T13:37:56.999Z</time></trkpt><trkpt lat="42.15457789917837" lon="12.130808082889839"><ele>410.0</ele><time>2026-04-26T13:38:02.999Z</time></trkpt><trkpt lat="42.1545241045886" lon="12.130741457920466"><ele>410.0</ele><time>2026-04-26T13:38:08.999Z</time></trkpt><trkpt lat="42.15449205920419" lon="12.130664693167503"><ele>410.0</ele><time>2026-04-26T13:38:13.999Z</time></trkpt><trkpt lat="42.15445704084597" lon="12.13057407336449"><ele>410.0</ele><time>2026-04-26T13:38:19.999Z</time></trkpt><trkpt lat="42.15443353607561" lon="12.130489695013871"><ele>410.0</ele><time>2026-04-26T13:38:24.999Z</time></trkpt><trkpt lat="42.15440559843071" lon="12.130402304416409"><ele>410.0</ele><time>2026-04-26T13:38:31Z</time></trkpt><trkpt lat="42.15440129608401" lon="12.130296787554586"><ele>410.0</ele><time>2026-04-26T13:38:37Z</time></trkpt><trkpt lat="42.1544026533547" lon="12.130199965245577"><ele>410.0</ele><time>2026-04-26T13:38:42Z</time></trkpt><trkpt lat="42.154427558920425" lon="12.13012168269977"><ele>410.0</ele><time>2026-04-26T13:38:48Z</time></trkpt><trkpt lat="42.15444576817862" lon="12.130036864002196"><ele>410.0</ele><time>2026-04-26T13:38:54Z</time></trkpt><trkpt lat="42.15444054984421" lon="12.129946176575372"><ele>410.0</ele><time>2026-04-26T13:39:00Z</time></trkpt><trkpt lat="42.154445520630105" lon="12.129858835214819"><ele>409.8333333333333</ele><time>2026-04-26T13:39:05Z</time></trkpt><trkpt lat="42.15445939734752" lon="12.129773541810813"><ele>409.66666666666663</ele><time>2026-04-26T13:39:10Z</time></trkpt><trkpt lat="42.1544347264311" lon="12.129664512344952"><ele>409.5</ele><time>2026-04-26T13:39:14Z</time></trkpt><trkpt lat="42.154454940863765" lon="12.129549995318703"><ele>409.33333333333337</ele><time>2026-04-26T13:39:17Z</time></trkpt><trkpt lat="42.15442826789295" lon="12.129463146599143"><ele>409.1666666666667</ele><time>2026-04-26T13:39:20Z</time></trkpt><trkpt lat="42.15442757474813" lon="12.129340586018968"><ele>409.0</ele><time>2026-04-26T13:39:23.999Z</time></trkpt><trkpt lat="42.15439680788698" lon="12.129243280057503"><ele>409.00000000000006</ele><time>2026-04-26T13:39:27.999Z</time></trkpt><trkpt lat="42.15435448155839" lon="12.129170334049887"><ele>409.0</ele><time>2026-04-26T13:39:30.999Z</time></trkpt><trkpt lat="42.154294772657856" lon="12.129093472851682"><ele>409.0</ele><time>2026-04-26T13:39:32.999Z</time></trkpt><trkpt lat="42.154353265940074" lon="12.128980034374012"><ele>409.0</ele><time>2026-04-26T13:39:34.999Z</time></trkpt><trkpt lat="42.15429221349301" lon="12.128893556797184"><ele>409.00000000000006</ele><time>2026-04-26T13:39:36.999Z</time></trkpt><trkpt lat="42.15425717949629" lon="12.128783048962216"><ele>409.0</ele><time>2026-04-26T13:39:39.999Z</time></trkpt><trkpt lat="42.15419523317569" lon="12.1287203382668"><ele>409.00000000000006</ele><time>2026-04-26T13:39:42.999Z</time></trkpt><trkpt lat="42.154149569017825" lon="12.128636129970914"><ele>409.0</ele><time>2026-04-26T13:39:44.999Z</time></trkpt><trkpt lat="42.15409255071929" lon="12.128544103369858"><ele>409.0</ele><time>2026-04-26T13:39:46.999Z</time></trkpt><trkpt lat="42.15405873984622" lon="12.128468909647061"><ele>409.0</ele><time>2026-04-26T13:39:48.999Z</time></trkpt><trkpt lat="42.154041168846675" lon="12.128369114088091"><ele>409.00000000000006</ele><time>2026-04-26T13:39:50.999Z</time></trkpt><trkpt lat="42.154014493020995" lon="12.128279099122535"><ele>409.0</ele><time>2026-04-26T13:39:52.999Z</time></trkpt><trkpt lat="42.153988676036256" lon="12.12816421392736"><ele>408.6666666666667</ele><time>2026-04-26T13:39:55.999Z</time></trkpt><trkpt lat="42.15395077237853" lon="12.128049946439818"><ele>408.33333333333337</ele><time>2026-04-26T13:39:58.999Z</time></trkpt><trkpt lat="42.15392999038314" lon="12.127940940997838"><ele>408.0</ele><time>2026-04-26T13:40:01.999Z</time></trkpt><trkpt lat="42.153914532778956" lon="12.127858342659074"><ele>407.66666666666663</ele><time>2026-04-26T13:40:03.999Z</time></trkpt><trkpt lat="42.153906228463235" lon="12.127766933129696"><ele>407.3333333333333</ele><time>2026-04-26T13:40:05.999Z</time></trkpt><trkpt lat="42.1538846352494" lon="12.127641498293032"><ele>407.0</ele><time>2026-04-26T13:40:08.999Z</time></trkpt><trkpt lat="42.153853015302396" lon="12.127515710476628"><ele>407.00000000000006</ele><time>2026-04-26T13:40:11.999Z</time></trkpt><trkpt lat="42.15384449012477" lon="12.127425961151953"><ele>407.0</ele><time>2026-04-26T13:40:13.999Z</time></trkpt><trkpt lat="42.15382448803934" lon="12.127344676693756"><ele>407.0</ele><time>2026-04-26T13:40:15.999Z</time></trkpt><trkpt lat="42.153817617417594" lon="12.127260022342208"><ele>407.0</ele><time>2026-04-26T13:40:17.999Z</time></trkpt><trkpt lat="42.153804370665924" lon="12.127168948373628"><ele>407.0</ele><time>2026-04-26T13:40:21.999Z</time></trkpt><trkpt lat="42.1538130464145" lon="12.127059405757747"><ele>407.00000000000006</ele><time>2026-04-26T13:40:25.999Z</time></trkpt><trkpt lat="42.15378402159397" lon="12.126956863808852"><ele>407.0</ele><time>2026-04-26T13:40:28.999Z</time></trkpt><trkpt lat="42.15375377398813" lon="12.126854991172861"><ele>407.28571428571433</ele><time>2026-04-26T13:40:31.999Z</time></trkpt><trkpt lat="42.15376054091551" lon="12.126751745444228"><ele>407.57142857142856</ele><time>2026-04-26T13:40:36Z</time></trkpt><trkpt lat="42.15375069082526" lon="12.126662651304352"><ele>407.8571428571429</ele><time>2026-04-26T13:40:39Z</time></trkpt><trkpt lat="42.15372536063821" lon="12.126534743601493"><ele>408.14285714285717</ele><time>2026-04-26T13:40:43Z</time></trkpt><trkpt lat="42.15371017362699" lon="12.126449030136666"><ele>408.42857142857144</ele><time>2026-04-26T13:40:46Z</time></trkpt><trkpt lat="42.1537108001278" lon="12.126364035961835"><ele>408.7142857142857</ele><time>2026-04-26T13:40:49Z</time></trkpt><trkpt lat="42.15368989926823" lon="12.126265951642091"><ele>409.0</ele><time>2026-04-26T13:40:52Z</time></trkpt><trkpt lat="42.15368240276003" lon="12.126136554185184"><ele>409.00000000000006</ele><time>2026-04-26T13:40:55Z</time></trkpt><trkpt lat="42.153668213924306" lon="12.12602738755782"><ele>409.0</ele><time>2026-04-26T13:40:59Z</time></trkpt><trkpt lat="42.15364256254426" lon="12.1259476388546"><ele>409.0</ele><time>2026-04-26T13:41:01Z</time></trkpt><trkpt lat="42.153623944287695" lon="12.125833582911303"><ele>409.0</ele><time>2026-04-26T13:41:04Z</time></trkpt><trkpt lat="42.15360276063822" lon="12.125722697490897"><ele>409.00000000000006</ele><time>2026-04-26T13:41:06Z</time></trkpt><trkpt lat="42.15356200264657" lon="12.125639648032703"><ele>409.0</ele><time>2026-04-26T13:41:08Z</time></trkpt><trkpt lat="42.15354999724419" lon="12.125540363447843"><ele>409.00000000000006</ele><time>2026-04-26T13:41:10Z</time></trkpt><trkpt lat="42.15355117427782" lon="12.125437093311142"><ele>409.0</ele><time>2026-04-26T13:41:13Z</time></trkpt><trkpt lat="42.15351092359727" lon="12.12532891040398"><ele>409.0</ele><time>2026-04-26T13:41:15Z</time></trkpt><trkpt lat="42.153495422825166" lon="12.125234469576819"><ele>409.0</ele><time>2026-04-26T13:41:17Z</time></trkpt><trkpt lat="42.15346699298891" lon="12.125156729976036"><ele>409.00000000000006</ele><time>2026-04-26T13:41:19Z</time></trkpt><trkpt lat="42.15343313602002" lon="12.125042741082739"><ele>409.0</ele><time>2026-04-26T13:41:21.999Z</time></trkpt><trkpt lat="42.153422512986076" lon="12.12493081465525"><ele>409.1666666666667</ele><time>2026-04-26T13:41:23.999Z</time></trkpt><trkpt lat="42.15339665363354" lon="12.124844249680253"><ele>409.33333333333337</ele><time>2026-04-26T13:41:25.999Z</time></trkpt><trkpt lat="42.153372579353416" lon="12.124755997586469"><ele>409.5</ele><time>2026-04-26T13:41:27.999Z</time></trkpt><trkpt lat="42.153346316139725" lon="12.124674979106944"><ele>409.66666666666663</ele><time>2026-04-26T13:41:29.999Z</time></trkpt><trkpt lat="42.153318631463826" lon="12.124583866791417"><ele>409.8333333333333</ele><time>2026-04-26T13:41:31.999Z</time></trkpt><trkpt lat="42.153268529407" lon="12.124483010271062"><ele>410.0</ele><time>2026-04-26T13:41:34.999Z</time></trkpt><trkpt lat="42.15325724204625" lon="12.124360964124323"><ele>409.99999999999994</ele><time>2026-04-26T13:41:36.999Z</time></trkpt><trkpt lat="42.15325191627562" lon="12.124264449251585"><ele>410.0</ele><time>2026-04-26T13:41:38.999Z</time></trkpt><trkpt lat="42.153228226781664" lon="12.124168577323074"><ele>410.0</ele><time>2026-04-26T13:41:40.999Z</time></trkpt><trkpt lat="42.15319126016085" lon="12.124050221242165"><ele>410.0</ele><time>2026-04-26T13:41:43.999Z</time></trkpt><trkpt lat="42.15317172763635" lon="12.123938340868937"><ele>409.99999999999994</ele><time>2026-04-26T13:41:46.999Z</time></trkpt><trkpt lat="42.153118914870056" lon="12.123841970118542"><ele>410.0</ele><time>2026-04-26T13:41:48.999Z</time></trkpt><trkpt lat="42.15307791202685" lon="12.12374822694351"><ele>410.16666666666663</ele><time>2026-04-26T13:41:50.999Z</time></trkpt><trkpt lat="42.15308709226468" lon="12.123645133715941"><ele>410.3333333333333</ele><time>2026-04-26T13:41:52.999Z</time></trkpt><trkpt lat="42.153048292142564" lon="12.123570417766317"><ele>410.5</ele><time>2026-04-26T13:41:54.999Z</time></trkpt><trkpt lat="42.15300553762093" lon="12.123480844799857"><ele>410.66666666666663</ele><time>2026-04-26T13:41:56.999Z</time></trkpt><trkpt lat="42.15295913081975" lon="12.123375286974557"><ele>410.8333333333333</ele><time>2026-04-26T13:41:58.999Z</time></trkpt><trkpt lat="42.15291200610352" lon="12.123288190714574"><ele>411.0</ele><time>2026-04-26T13:42:00.999Z</time></trkpt><trkpt lat="42.15289379699198" lon="12.123201209267043"><ele>411.0</ele><time>2026-04-26T13:42:02.999Z</time></trkpt><trkpt lat="42.152852537610165" lon="12.123081136536886"><ele>411.0</ele><time>2026-04-26T13:42:05.999Z</time></trkpt><trkpt lat="42.15280095570768" lon="12.122993077162906"><ele>411.0</ele><time>2026-04-26T13:42:07.999Z</time></trkpt><trkpt lat="42.15279797875676" lon="12.122895511475333"><ele>411.0</ele><time>2026-04-26T13:42:09.999Z</time></trkpt><trkpt lat="42.152754736645484" lon="12.122823625909186"><ele>411.0</ele><time>2026-04-26T13:42:11.999Z</time></trkpt><trkpt lat="42.15273037557358" lon="12.122731235608468"><ele>411.0</ele><time>2026-04-26T13:42:13.999Z</time></trkpt><trkpt lat="42.152688846785" lon="12.122620696876329"><ele>411.0</ele><time>2026-04-26T13:42:16.999Z</time></trkpt><trkpt lat="42.15265152066329" lon="12.1225217352491"><ele>411.0</ele><time>2026-04-26T13:42:18.999Z</time></trkpt><trkpt lat="42.15262229637933" lon="12.12244241922292"><ele>411.0</ele><time>2026-04-26T13:42:20.999Z</time></trkpt><trkpt lat="42.15260300786955" lon="12.122345010591978"><ele>411.0</ele><time>2026-04-26T13:42:22.999Z</time></trkpt><trkpt lat="42.15256454077346" lon="12.122265531033673"><ele>411.0</ele><time>2026-04-26T13:42:24.999Z</time></trkpt><trkpt lat="42.152538075701685" lon="12.122186355093548"><ele>411.0</ele><time>2026-04-26T13:42:26.999Z</time></trkpt><trkpt lat="42.15248809685893" lon="12.12207208043619"><ele>410.8</ele><time>2026-04-26T13:42:29.999Z</time></trkpt><trkpt lat="42.152459472296805" lon="12.121924266886259"><ele>410.6</ele><time>2026-04-26T13:42:32.999Z</time></trkpt><trkpt lat="42.15238592576822" lon="12.121853391276513"><ele>410.4</ele><time>2026-04-26T13:42:35.999Z</time></trkpt><trkpt lat="42.152313313800036" lon="12.121792953419474"><ele>410.2</ele><time>2026-04-26T13:42:37.999Z</time></trkpt><trkpt lat="42.1522296315531" lon="12.121706951011886"><ele>410.0</ele><time>2026-04-26T13:42:40.998Z</time></trkpt><trkpt lat="42.15218114360289" lon="12.121593517312487"><ele>409.8333333333333</ele><time>2026-04-26T13:42:43Z</time></trkpt><trkpt lat="42.15219376769063" lon="12.121462609594172"><ele>409.66666666666663</ele><time>2026-04-26T13:42:47Z</time></trkpt><trkpt lat="42.15222036851765" lon="12.121342291960794"><ele>409.5</ele><time>2026-04-26T13:42:50Z</time></trkpt><trkpt lat="42.152272425422765" lon="12.121250293732244"><ele>409.33333333333337</ele><time>2026-04-26T13:42:53Z</time></trkpt><trkpt lat="42.15229927184407" lon="12.121153458768266"><ele>409.1666666666667</ele><time>2026-04-26T13:42:57Z</time></trkpt><trkpt lat="42.152346711631175" lon="12.121081077675985"><ele>409.0</ele><time>2026-04-26T13:42:59Z</time></trkpt><trkpt lat="42.152360880509576" lon="12.120982100850382"><ele>408.83333333333337</ele><time>2026-04-26T13:43:03Z</time></trkpt><trkpt lat="42.15238308122996" lon="12.12090234610376"><ele>408.6666666666667</ele><time>2026-04-26T13:43:06Z</time></trkpt><trkpt lat="42.152441612436384" lon="12.1208591940137"><ele>408.5</ele><time>2026-04-26T13:43:10Z</time></trkpt><trkpt lat="42.152466823673635" lon="12.120756368182086"><ele>408.33333333333337</ele><time>2026-04-26T13:43:13Z</time></trkpt><trkpt lat="42.15247330685375" lon="12.120637885710789"><ele>408.1666666666667</ele><time>2026-04-26T13:43:16Z</time></trkpt><trkpt lat="42.152504537451655" lon="12.120548264624563"><ele>408.0</ele><time>2026-04-26T13:43:19Z</time></trkpt><trkpt lat="42.152489057837684" lon="12.120428824977806"><ele>408.0</ele><time>2026-04-26T13:43:23Z</time></trkpt><trkpt lat="42.15251203141146" lon="12.120307128549255"><ele>408.0</ele><time>2026-04-26T13:43:26Z</time></trkpt><trkpt lat="42.1525300475047" lon="12.120182753986589"><ele>408.0</ele><time>2026-04-26T13:43:29Z</time></trkpt><trkpt lat="42.15252948369124" lon="12.120080743058354"><ele>408.0</ele><time>2026-04-26T13:43:32Z</time></trkpt><trkpt lat="42.152527998608754" lon="12.119973048154995"><ele>408.0</ele><time>2026-04-26T13:43:35Z</time></trkpt><trkpt lat="42.152529559999785" lon="12.119881942956654"><ele>408.0</ele><time>2026-04-26T13:43:38Z</time></trkpt><trkpt lat="42.15253974978358" lon="12.119770523210436"><ele>407.1666666666667</ele><time>2026-04-26T13:43:40.999Z</time></trkpt><trkpt lat="42.15256710183941" lon="12.119692949768808"><ele>406.33333333333337</ele><time>2026-04-26T13:43:42.999Z</time></trkpt><trkpt lat="42.15262759603038" lon="12.119658262980955"><ele>405.5</ele><time>2026-04-26T13:43:45.999Z</time></trkpt><trkpt lat="42.1526366534334" lon="12.11955588391713"><ele>404.6666666666667</ele><time>2026-04-26T13:43:47.999Z</time></trkpt><trkpt lat="42.15266392105492" lon="12.119420585298448"><ele>403.83333333333337</ele><time>2026-04-26T13:43:50.999Z</time></trkpt><trkpt lat="42.15270108436869" lon="12.119326906676287"><ele>403.0</ele><time>2026-04-26T13:43:53.999Z</time></trkpt><trkpt lat="42.15274854833068" lon="12.119258062887338"><ele>403.00000000000006</ele><time>2026-04-26T13:43:55.999Z</time></trkpt><trkpt lat="42.15274662847959" lon="12.119153320344335"><ele>403.0</ele><time>2026-04-26T13:43:58.999Z</time></trkpt><trkpt lat="42.15276821881857" lon="12.119033590936256"><ele>403.0</ele><time>2026-04-26T13:44:01.999Z</time></trkpt><trkpt lat="42.15280202372253" lon="12.118938045126194"><ele>403.0</ele><time>2026-04-26T13:44:04.999Z</time></trkpt><trkpt lat="42.15281856792133" lon="12.118823904615866"><ele>403.00000000000006</ele><time>2026-04-26T13:44:07.999Z</time></trkpt><trkpt lat="42.15282343309997" lon="12.118735075690712"><ele>403.0</ele><time>2026-04-26T13:44:10.999Z</time></trkpt><trkpt lat="42.15278016588857" lon="12.11863339852409"><ele>402.1666666666667</ele><time>2026-04-26T13:44:13.999Z</time></trkpt><trkpt lat="42.152760576349586" lon="12.118538640812707"><ele>401.33333333333337</ele><time>2026-04-26T13:44:16.999Z</time></trkpt><trkpt lat="42.152714479877055" lon="12.118430904813408"><ele>400.5</ele><time>2026-04-26T13:44:19.999Z</time></trkpt><trkpt lat="42.15263840248823" lon="12.118404304669815"><ele>399.66666666666663</ele><time>2026-04-26T13:44:22.999Z</time></trkpt><trkpt lat="42.1525702945697" lon="12.118405399687523"><ele>398.8333333333333</ele><time>2026-04-26T13:44:24.999Z</time></trkpt><trkpt lat="42.152473065478226" lon="12.118408288639918"><ele>398.0</ele><time>2026-04-26T13:44:27.999Z</time></trkpt><trkpt lat="42.152416014661824" lon="12.118501648876583"><ele>398.66666666666663</ele><time>2026-04-26T13:44:30.999Z</time></trkpt><trkpt lat="42.152366216182294" lon="12.11856595144361"><ele>399.3333333333333</ele><time>2026-04-26T13:44:32.999Z</time></trkpt><trkpt lat="42.152317743430224" lon="12.11864328808312"><ele>400.0</ele><time>2026-04-26T13:44:35.999Z</time></trkpt><trkpt lat="42.15227152545039" lon="12.11870925502777"><ele>400.66666666666663</ele><time>2026-04-26T13:44:37.999Z</time></trkpt><trkpt lat="42.15220328468949" lon="12.118790010493463"><ele>401.3333333333333</ele><time>2026-04-26T13:44:40.999Z</time></trkpt><trkpt lat="42.152151191088336" lon="12.118888545482127"><ele>402.0</ele><time>2026-04-26T13:44:43.999Z</time></trkpt><trkpt lat="42.15210493187469" lon="12.118989534699304"><ele>402.0</ele><time>2026-04-26T13:44:46.999Z</time></trkpt><trkpt lat="42.152043401734566" lon="12.119061818544841"><ele>402.0</ele><time>2026-04-26T13:44:50Z</time></trkpt><trkpt lat="42.151941480662245" lon="12.119116311306456"><ele>402.0</ele><time>2026-04-26T13:44:53Z</time></trkpt><trkpt lat="42.151868993090474" lon="12.119179394444211"><ele>402.0</ele><time>2026-04-26T13:44:56Z</time></trkpt><trkpt lat="42.15181156738175" lon="12.11925123531646"><ele>402.0</ele><time>2026-04-26T13:44:59Z</time></trkpt><trkpt lat="42.15173886932175" lon="12.119278435067026"><ele>402.0</ele><time>2026-04-26T13:45:02Z</time></trkpt><trkpt lat="42.151680926836775" lon="12.11931355407219"><ele>402.0</ele><time>2026-04-26T13:45:04Z</time></trkpt><trkpt lat="42.151611109860205" lon="12.11931658393006"><ele>402.0</ele><time>2026-04-26T13:45:06Z</time></trkpt><trkpt lat="42.15154567136176" lon="12.119343387325243"><ele>402.0</ele><time>2026-04-26T13:45:09Z</time></trkpt><trkpt lat="42.151477682350276" lon="12.119387408783595"><ele>402.0</ele><time>2026-04-26T13:45:12Z</time></trkpt><trkpt lat="42.151405692909194" lon="12.11942367400362"><ele>402.0</ele><time>2026-04-26T13:45:16Z</time></trkpt><trkpt lat="42.15133371386045" lon="12.119433321291787"><ele>402.0</ele><time>2026-04-26T13:45:20Z</time></trkpt><trkpt lat="42.151263879949035" lon="12.119425216046364"><ele>402.0</ele><time>2026-04-26T13:45:28Z</time></trkpt><trkpt lat="42.151168123618156" lon="12.119445689237313"><ele>402.2857142857143</ele><time>2026-04-26T13:45:34Z</time></trkpt><trkpt lat="42.15110646025595" lon="12.119471811853234"><ele>402.5714285714286</ele><time>2026-04-26T13:45:39Z</time></trkpt><trkpt lat="42.15104010965314" lon="12.119462773975906"><ele>402.8571428571429</ele><time>2026-04-26T13:45:45Z</time></trkpt><trkpt lat="42.15097665944707" lon="12.119486070819052"><ele>403.1428571428571</ele><time>2026-04-26T13:45:50Z</time></trkpt><trkpt lat="42.1509180980176" lon="12.119530766497999"><ele>403.42857142857144</ele><time>2026-04-26T13:45:53.999Z</time></trkpt><trkpt lat="42.150855979930185" lon="12.119588715643316"><ele>403.7142857142857</ele><time>2026-04-26T13:45:58.999Z</time></trkpt><trkpt lat="42.15079493662492" lon="12.119648054687458"><ele>404.0</ele><time>2026-04-26T13:46:03.999Z</time></trkpt><trkpt lat="42.15073787732745" lon="12.119709662599496"><ele>405.7142857142857</ele><time>2026-04-26T13:46:08.999Z</time></trkpt><trkpt lat="42.15067723370552" lon="12.119767563489209"><ele>407.42857142857144</ele><time>2026-04-26T13:46:13.999Z</time></trkpt><trkpt lat="42.150611204875545" lon="12.119813105861486"><ele>409.1428571428571</ele><time>2026-04-26T13:46:18.999Z</time></trkpt><trkpt lat="42.15055961175144" lon="12.119874177237037"><ele>410.8571428571429</ele><time>2026-04-26T13:46:23.999Z</time></trkpt><trkpt lat="42.150516141052506" lon="12.11993725447071"><ele>412.5714285714286</ele><time>2026-04-26T13:46:27.999Z</time></trkpt><trkpt lat="42.150471284204016" lon="12.120004799187544"><ele>414.2857142857143</ele><time>2026-04-26T13:46:32.999Z</time></trkpt><trkpt lat="42.15041326339514" lon="12.120064091824828"><ele>416.0</ele><time>2026-04-26T13:46:39.999Z</time></trkpt><trkpt lat="42.15037149769294" lon="12.120137719373467"><ele>416.0</ele><time>2026-04-26T13:46:45.999Z</time></trkpt><trkpt lat="42.150327223207526" lon="12.120206399474602"><ele>416.0</ele><time>2026-04-26T13:46:50.999Z</time></trkpt><trkpt lat="42.15030062081259" lon="12.120296314026154"><ele>416.0</ele><time>2026-04-26T13:46:56Z</time></trkpt><trkpt lat="42.15026872261985" lon="12.120400232928088"><ele>416.0</ele><time>2026-04-26T13:47:02Z</time></trkpt><trkpt lat="42.15021001649847" lon="12.120444322841001"><ele>416.0</ele><time>2026-04-26T13:47:07Z</time></trkpt><trkpt lat="42.150153823867235" lon="12.12049526801509"><ele>416.0</ele><time>2026-04-26T13:47:12Z</time></trkpt><trkpt lat="42.150136577029336" lon="12.120590142046872"><ele>416.0</ele><time>2026-04-26T13:47:16Z</time></trkpt><trkpt lat="42.15007298384429" lon="12.120617180716147"><ele>416.0</ele><time>2026-04-26T13:47:20Z</time></trkpt><trkpt lat="42.15002695427632" lon="12.120688814627549"><ele>416.0</ele><time>2026-04-26T13:47:25Z</time></trkpt><trkpt lat="42.15001014787916" lon="12.120776248975732"><ele>416.0</ele><time>2026-04-26T13:47:29Z</time></trkpt><trkpt lat="42.14995413579666" lon="12.120842326957174"><ele>416.0</ele><time>2026-04-26T13:47:34Z</time></trkpt><trkpt lat="42.149911514835786" lon="12.12090838582132"><ele>416.0</ele><time>2026-04-26T13:47:39Z</time></trkpt><trkpt lat="42.14987310258571" lon="12.120982487626918"><ele>416.0</ele><time>2026-04-26T13:47:44Z</time></trkpt><trkpt lat="42.14984997054673" lon="12.121078367511464"><ele>416.0</ele><time>2026-04-26T13:47:57.999Z</time></trkpt><trkpt lat="42.14983066329375" lon="12.121170382255986"><ele>416.0</ele><time>2026-04-26T13:48:03.999Z</time></trkpt><trkpt lat="42.14982370264111" lon="12.12127231077266"><ele>416.0</ele><time>2026-04-26T13:48:09.999Z</time></trkpt><trkpt lat="42.14981691320738" lon="12.121367225178346"><ele>416.0</ele><time>2026-04-26T13:48:14.999Z</time></trkpt><trkpt lat="42.14980117597044" lon="12.121457587872628"><ele>416.0</ele><time>2026-04-26T13:48:19.999Z</time></trkpt><trkpt lat="42.14979522313001" lon="12.121545992400105"><ele>416.0</ele><time>2026-04-26T13:48:24.999Z</time></trkpt><trkpt lat="42.149770290630805" lon="12.121637373781065"><ele>416.0</ele><time>2026-04-26T13:48:29.999Z</time></trkpt><trkpt lat="42.149748570500925" lon="12.12172992035682"><ele>416.0</ele><time>2026-04-26T13:48:34.999Z</time></trkpt><trkpt lat="42.149735368228654" lon="12.1218306662441"><ele>415.7142857142857</ele><time>2026-04-26T13:48:40.999Z</time></trkpt><trkpt lat="42.149716511672345" lon="12.121932201421725"><ele>415.42857142857144</ele><time>2026-04-26T13:48:45.999Z</time></trkpt><trkpt lat="42.149691916723995" lon="12.122011029691073"><ele>415.14285714285717</ele><time>2026-04-26T13:48:49.999Z</time></trkpt><trkpt lat="42.14963451995641" lon="12.122086602700527"><ele>414.8571428571429</ele><time>2026-04-26T13:48:54.998Z</time></trkpt><trkpt lat="42.14960366616413" lon="12.122181297535139"><ele>414.57142857142856</ele><time>2026-04-26T13:49:00Z</time></trkpt><trkpt lat="42.14957304618345" lon="12.122271508255478"><ele>414.28571428571433</ele><time>2026-04-26T13:49:06Z</time></trkpt><trkpt lat="42.14957250321726" lon="12.122357620611497"><ele>414.0</ele><time>2026-04-26T13:49:10Z</time></trkpt><trkpt lat="42.1495612249179" lon="12.122447631202649"><ele>414.00000000000006</ele><time>2026-04-26T13:49:15Z</time></trkpt><trkpt lat="42.149535433963095" lon="12.122543650526943"><ele>414.0</ele><time>2026-04-26T13:49:20Z</time></trkpt><trkpt lat="42.14950443273357" lon="12.122630356954678"><ele>414.0</ele><time>2026-04-26T13:49:25Z</time></trkpt><trkpt lat="42.149476656455974" lon="12.122716216910664"><ele>414.0</ele><time>2026-04-26T13:49:30Z</time></trkpt><trkpt lat="42.14944533730608" lon="12.122790346423582"><ele>414.0</ele><time>2026-04-26T13:49:34.999Z</time></trkpt><trkpt lat="42.149426277324764" lon="12.12289363603795"><ele>414.00000000000006</ele><time>2026-04-26T13:49:39.999Z</time></trkpt><trkpt lat="42.14940462862103" lon="12.12298905335322"><ele>414.0</ele><time>2026-04-26T13:49:44.999Z</time></trkpt><trkpt lat="42.14939490070972" lon="12.123074617796378"><ele>414.00000000000006</ele><time>2026-04-26T13:49:49.999Z</time></trkpt><trkpt lat="42.14939299843098" lon="12.123165633527318"><ele>414.0</ele><time>2026-04-26T13:49:54.999Z</time></trkpt><trkpt lat="42.14944311825324" lon="12.123224830125936"><ele>414.0</ele><time>2026-04-26T13:50:00.999Z</time></trkpt><trkpt lat="42.14951536643832" lon="12.123281986090975"><ele>414.0</ele><time>2026-04-26T13:50:05.999Z</time></trkpt><trkpt lat="42.149586973497236" lon="12.123318699578265"><ele>414.0</ele><time>2026-04-26T13:50:10.999Z</time></trkpt><trkpt lat="42.14964551653705" lon="12.123364596360597"><ele>414.00000000000006</ele><time>2026-04-26T13:50:15.999Z</time></trkpt><trkpt lat="42.149705229804354" lon="12.123414500829718"><ele>414.0</ele><time>2026-04-26T13:50:21.999Z</time></trkpt><trkpt lat="42.14977874396012" lon="12.123429016540701"><ele>413.8571428571429</ele><time>2026-04-26T13:50:28.999Z</time></trkpt><trkpt lat="42.1498444548407" lon="12.123468502667823"><ele>413.7142857142857</ele><time>2026-04-26T13:50:32.999Z</time></trkpt><trkpt lat="42.14991611961028" lon="12.12349507684925"><ele>413.57142857142856</ele><time>2026-04-26T13:50:37.999Z</time></trkpt><trkpt lat="42.14999069775514" lon="12.12352569894534"><ele>413.42857142857144</ele><time>2026-04-26T13:50:43.999Z</time></trkpt><trkpt lat="42.150074061853324" lon="12.123555611447827"><ele>413.2857142857143</ele><time>2026-04-26T13:50:48.999Z</time></trkpt><trkpt lat="42.15013667403117" lon="12.123587134305609"><ele>413.14285714285717</ele><time>2026-04-26T13:50:54.998Z</time></trkpt><trkpt lat="42.1501966278563" lon="12.123625616725981"><ele>413.0</ele><time>2026-04-26T13:50:59.998Z</time></trkpt><trkpt lat="42.15025683401294" lon="12.123652427629365"><ele>413.0</ele><time>2026-04-26T13:51:04.998Z</time></trkpt><trkpt lat="42.15031760396674" lon="12.123689149170309"><ele>413.0</ele><time>2026-04-26T13:51:10.999Z</time></trkpt><trkpt lat="42.15038893696499" lon="12.123706905364042"><ele>413.0</ele><time>2026-04-26T13:51:15.999Z</time></trkpt><trkpt lat="42.15044700534541" lon="12.123760326531427"><ele>413.0</ele><time>2026-04-26T13:51:21.999Z</time></trkpt><trkpt lat="42.15051539156898" lon="12.12378048516808"><ele>413.0</ele><time>2026-04-26T13:51:26.999Z</time></trkpt><trkpt lat="42.15058223377633" lon="12.123790977684477"><ele>413.0</ele><time>2026-04-26T13:51:30.999Z</time></trkpt><trkpt lat="42.15063996315878" lon="12.123848273101508"><ele>413.0</ele><time>2026-04-26T13:51:35.999Z</time></trkpt><trkpt lat="42.15070003839801" lon="12.123893546746315"><ele>414.14285714285717</ele><time>2026-04-26T13:51:40.999Z</time></trkpt><trkpt lat="42.150764388769446" lon="12.12394578892733"><ele>415.2857142857143</ele><time>2026-04-26T13:51:46.999Z</time></trkpt><trkpt lat="42.150798901222196" lon="12.124020680517745"><ele>416.42857142857144</ele><time>2026-04-26T13:51:50.999Z</time></trkpt><trkpt lat="42.15080517183945" lon="12.124116574995453"><ele>417.57142857142856</ele><time>2026-04-26T13:51:54.999Z</time></trkpt><trkpt lat="42.15083456023936" lon="12.124196209062873"><ele>418.7142857142857</ele><time>2026-04-26T13:51:59.999Z</time></trkpt><trkpt lat="42.150835550617984" lon="12.124297765575939"><ele>419.8571428571429</ele><time>2026-04-26T13:52:04.999Z</time></trkpt><trkpt lat="42.15083930322227" lon="12.124391750589414"><ele>421.0</ele><time>2026-04-26T13:52:10.999Z</time></trkpt><trkpt lat="42.150825081049156" lon="12.124477330111949"><ele>421.00000000000006</ele><time>2026-04-26T13:52:15.999Z</time></trkpt><trkpt lat="42.15080255634105" lon="12.124568834978438"><ele>421.0</ele><time>2026-04-26T13:52:20.999Z</time></trkpt><trkpt lat="42.150782733460545" lon="12.124651147679357"><ele>421.0</ele><time>2026-04-26T13:52:25.999Z</time></trkpt><trkpt lat="42.15077094894943" lon="12.124737136253096"><ele>421.0</ele><time>2026-04-26T13:52:30.999Z</time></trkpt><trkpt lat="42.15073239901396" lon="12.124819275923754"><ele>421.0</ele><time>2026-04-26T13:52:35.999Z</time></trkpt><trkpt lat="42.150699649326235" lon="12.124903131911593"><ele>421.00000000000006</ele><time>2026-04-26T13:52:40.999Z</time></trkpt><trkpt lat="42.150693340184255" lon="12.124996094202084"><ele>421.0</ele><time>2026-04-26T13:52:45.999Z</time></trkpt><trkpt lat="42.15068739411423" lon="12.125085694476965"><ele>421.42857142857144</ele><time>2026-04-26T13:52:50.999Z</time></trkpt><trkpt lat="42.15070799597939" lon="12.125175384812508"><ele>421.8571428571429</ele><time>2026-04-26T13:52:55.999Z</time></trkpt><trkpt lat="42.15071813984191" lon="12.125270830618534"><ele>422.28571428571433</ele><time>2026-04-26T13:53:01.999Z</time></trkpt><trkpt lat="42.15071636153971" lon="12.125359728136996"><ele>422.7142857142857</ele><time>2026-04-26T13:53:06.999Z</time></trkpt><trkpt lat="42.150728546704755" lon="12.125448865227119"><ele>423.1428571428571</ele><time>2026-04-26T13:53:15Z</time></trkpt><trkpt lat="42.15074721257475" lon="12.12553588069314"><ele>423.5714285714286</ele><time>2026-04-26T13:53:19Z</time></trkpt><trkpt lat="42.15077697939145" lon="12.125634338870226"><ele>424.0</ele><time>2026-04-26T13:53:25Z</time></trkpt><trkpt lat="42.15082526245107" lon="12.125706715085625"><ele>423.8571428571429</ele><time>2026-04-26T13:53:31Z</time></trkpt><trkpt lat="42.15088378176397" lon="12.125772202159023"><ele>423.71428571428567</ele><time>2026-04-26T13:53:37Z</time></trkpt><trkpt lat="42.150932456890345" lon="12.12582713213957"><ele>423.57142857142856</ele><time>2026-04-26T13:53:41.999Z</time></trkpt><trkpt lat="42.15097851831401" lon="12.125896980825901"><ele>423.42857142857144</ele><time>2026-04-26T13:53:46.999Z</time></trkpt><trkpt lat="42.15102997500805" lon="12.125960314779485"><ele>423.28571428571433</ele><time>2026-04-26T13:53:51.999Z</time></trkpt><trkpt lat="42.15108213638387" lon="12.126028055947323"><ele>423.1428571428571</ele><time>2026-04-26T13:53:56.999Z</time></trkpt><trkpt lat="42.15113002491096" lon="12.126098800094685"><ele>423.0</ele><time>2026-04-26T13:54:01.999Z</time></trkpt><trkpt lat="42.15117827941561" lon="12.126164525719295"><ele>423.0</ele><time>2026-04-26T13:54:06.999Z</time></trkpt><trkpt lat="42.15122961232917" lon="12.126232809018441"><ele>423.0</ele><time>2026-04-26T13:54:11.999Z</time></trkpt><trkpt lat="42.151283819824265" lon="12.126294168055948"><ele>423.0</ele><time>2026-04-26T13:54:16.999Z</time></trkpt><trkpt lat="42.15132432808673" lon="12.1263686403402"><ele>423.0</ele><time>2026-04-26T13:54:21.999Z</time></trkpt><trkpt lat="42.15137994796521" lon="12.126433087076986"><ele>423.0</ele><time>2026-04-26T13:54:26.999Z</time></trkpt><trkpt lat="42.151427831249556" lon="12.126490650617255"><ele>423.0</ele><time>2026-04-26T13:54:30.999Z</time></trkpt><trkpt lat="42.15147168158447" lon="12.126567052545447"><ele>423.0</ele><time>2026-04-26T13:54:35.999Z</time></trkpt><trkpt lat="42.15150783049075" lon="12.12664794954951"><ele>422.4285714285714</ele><time>2026-04-26T13:54:40.999Z</time></trkpt><trkpt lat="42.151558518603714" lon="12.12672002548853"><ele>421.8571428571429</ele><time>2026-04-26T13:54:45.999Z</time></trkpt><trkpt lat="42.15160185409366" lon="12.12678513191291"><ele>421.2857142857143</ele><time>2026-04-26T13:54:49.999Z</time></trkpt><trkpt lat="42.151664204456566" lon="12.126849775066045"><ele>420.71428571428567</ele><time>2026-04-26T13:54:54.999Z</time></trkpt><trkpt lat="42.15171586784121" lon="12.126908778729849"><ele>420.1428571428571</ele><time>2026-04-26T13:54:58.999Z</time></trkpt><trkpt lat="42.15177056214396" lon="12.126978219730882"><ele>419.57142857142856</ele><time>2026-04-26T13:55:03.999Z</time></trkpt><trkpt lat="42.151830269317855" lon="12.127042637043907"><ele>419.0</ele><time>2026-04-26T13:55:08.998Z</time></trkpt><trkpt lat="42.151889672079136" lon="12.127092846866026"><ele>418.99999999999994</ele><time>2026-04-26T13:55:13.998Z</time></trkpt><trkpt lat="42.15195067599608" lon="12.127152097082632"><ele>419.0</ele><time>2026-04-26T13:55:19Z</time></trkpt><trkpt lat="42.15201240689809" lon="12.127213883397449"><ele>419.0</ele><time>2026-04-26T13:55:24Z</time></trkpt><trkpt lat="42.152062204657696" lon="12.127278640052936"><ele>419.0</ele><time>2026-04-26T13:55:29Z</time></trkpt><trkpt lat="42.15209285480533" lon="12.127356512064967"><ele>419.0</ele><time>2026-04-26T13:55:35Z</time></trkpt><trkpt lat="42.15213669422835" lon="12.127434898928245"><ele>418.99999999999994</ele><time>2026-04-26T13:55:41Z</time></trkpt><trkpt lat="42.15218038732673" lon="12.127510712720253"><ele>419.0</ele><time>2026-04-26T13:55:46Z</time></trkpt><trkpt lat="42.152235525310424" lon="12.127576106599118"><ele>418.4285714285714</ele><time>2026-04-26T13:55:51Z</time></trkpt><trkpt lat="42.15228455861283" lon="12.12764456918721"><ele>417.85714285714283</ele><time>2026-04-26T13:55:56Z</time></trkpt><trkpt lat="42.15233911269394" lon="12.127719614384162"><ele>417.2857142857143</ele><time>2026-04-26T13:56:02Z</time></trkpt><trkpt lat="42.152389321300355" lon="12.127791546927916"><ele>416.71428571428567</ele><time>2026-04-26T13:56:07Z</time></trkpt><trkpt lat="42.15243549656828" lon="12.127851843036453"><ele>416.14285714285717</ele><time>2026-04-26T13:56:11Z</time></trkpt><trkpt lat="42.15248068794111" lon="12.127933553366262"><ele>415.57142857142856</ele><time>2026-04-26T13:56:16Z</time></trkpt><trkpt lat="42.15253171897609" lon="12.128005644425176"><ele>415.0</ele><time>2026-04-26T13:56:20.999Z</time></trkpt><trkpt lat="42.15257504726384" lon="12.128079019994752"><ele>415.0</ele><time>2026-04-26T13:56:26.999Z</time></trkpt><trkpt lat="42.152632693212105" lon="12.128140107020258"><ele>415.0</ele><time>2026-04-26T13:56:31.999Z</time></trkpt><trkpt lat="42.152683787367394" lon="12.12820414057667"><ele>415.0</ele><time>2026-04-26T13:56:36.999Z</time></trkpt><trkpt lat="42.15272800547757" lon="12.128290101161994"><ele>415.0</ele><time>2026-04-26T13:56:41.999Z</time></trkpt><trkpt lat="42.15278081082412" lon="12.128357066201794"><ele>415.0</ele><time>2026-04-26T13:56:46.999Z</time></trkpt><trkpt lat="42.15283066682285" lon="12.128417779087737"><ele>415.0</ele><time>2026-04-26T13:56:50.999Z</time></trkpt><trkpt lat="42.15287747466622" lon="12.128485719380832"><ele>415.0</ele><time>2026-04-26T13:56:55.999Z</time></trkpt><trkpt lat="42.15293018971187" lon="12.128554358836151"><ele>415.0</ele><time>2026-04-26T13:57:00.999Z</time></trkpt><trkpt lat="42.152981597553485" lon="12.128610278605588"><ele>415.0</ele><time>2026-04-26T13:57:04.999Z</time></trkpt><trkpt lat="42.15302795991326" lon="12.128684283485718"><ele>415.0</ele><time>2026-04-26T13:57:09.999Z</time></trkpt><trkpt lat="42.15307464287706" lon="12.128751897918987"><ele>415.0</ele><time>2026-04-26T13:57:14.999Z</time></trkpt><trkpt lat="42.153128671658855" lon="12.128800499328811"><ele>415.0</ele><time>2026-04-26T13:57:18.999Z</time></trkpt><trkpt lat="42.153177446710984" lon="12.128867125049059"><ele>415.0</ele><time>2026-04-26T13:57:22.999Z</time></trkpt><trkpt lat="42.15322692608552" lon="12.12893716035575"><ele>415.0</ele><time>2026-04-26T13:57:28Z</time></trkpt><trkpt lat="42.15327852388175" lon="12.129012671720893"><ele>415.0</ele><time>2026-04-26T13:57:33Z</time></trkpt><trkpt lat="42.15332693429585" lon="12.129079920819514"><ele>415.0</ele><time>2026-04-26T13:57:38Z</time></trkpt><trkpt lat="42.153379036342436" lon="12.129149318235063"><ele>415.0</ele><time>2026-04-26T13:57:43Z</time></trkpt><trkpt lat="42.15342625332519" lon="12.12922657658071"><ele>415.0</ele><time>2026-04-26T13:57:48Z</time></trkpt><trkpt lat="42.153479208840224" lon="12.129297899451839"><ele>415.0</ele><time>2026-04-26T13:57:53Z</time></trkpt><trkpt lat="42.15352560114707" lon="12.129373876449247"><ele>415.0</ele><time>2026-04-26T13:57:58Z</time></trkpt><trkpt lat="42.15357675164986" lon="12.129440413020129"><ele>415.0</ele><time>2026-04-26T13:58:03Z</time></trkpt><trkpt lat="42.1536187024559" lon="12.129505902643238"><ele>415.0</ele><time>2026-04-26T13:58:07Z</time></trkpt><trkpt lat="42.153665998918164" lon="12.129567522753785"><ele>415.0</ele><time>2026-04-26T13:58:11Z</time></trkpt><trkpt lat="42.15370820441887" lon="12.129632911309578"><ele>415.0</ele><time>2026-04-26T13:58:15Z</time></trkpt><trkpt lat="42.15376942000279" lon="12.129688522373458"><ele>415.0</ele><time>2026-04-26T13:58:19Z</time></trkpt><trkpt lat="42.15382862838608" lon="12.129757517603768"><ele>415.0</ele><time>2026-04-26T13:58:24Z</time></trkpt><trkpt lat="42.153887553399116" lon="12.129805582226538"><ele>415.0</ele><time>2026-04-26T13:58:28.999Z</time></trkpt><trkpt lat="42.15391882910408" lon="12.129890081237557"><ele>415.0</ele><time>2026-04-26T13:58:34.999Z</time></trkpt><trkpt lat="42.15397170778642" lon="12.129955498703284"><ele>414.42857142857144</ele><time>2026-04-26T13:58:38.999Z</time></trkpt><trkpt lat="42.15402066716988" lon="12.13001028521631"><ele>413.8571428571429</ele><time>2026-04-26T13:58:42.999Z</time></trkpt><trkpt lat="42.154064944131385" lon="12.130076649436695"><ele>413.2857142857143</ele><time>2026-04-26T13:58:46.999Z</time></trkpt><trkpt lat="42.154111935896566" lon="12.130145326881193"><ele>412.7142857142857</ele><time>2026-04-26T13:58:51.999Z</time></trkpt><trkpt lat="42.154158499780486" lon="12.130203781179539"><ele>412.1428571428571</ele><time>2026-04-26T13:58:55.999Z</time></trkpt><trkpt lat="42.154198802011294" lon="12.130269749387221"><ele>411.57142857142856</ele><time>2026-04-26T13:58:59.999Z</time></trkpt><trkpt lat="42.154239950048634" lon="12.130349371407425"><ele>411.0</ele><time>2026-04-26T13:59:04.999Z</time></trkpt><trkpt lat="42.15428680562687" lon="12.130418618665601"><ele>410.85714285714283</ele><time>2026-04-26T13:59:09.999Z</time></trkpt><trkpt lat="42.154341354214644" lon="12.13048267816739"><ele>410.71428571428567</ele><time>2026-04-26T13:59:14.999Z</time></trkpt><trkpt lat="42.154391161454015" lon="12.130544874892697"><ele>410.57142857142856</ele><time>2026-04-26T13:59:19.999Z</time></trkpt><trkpt lat="42.154436491044414" lon="12.130611108111903"><ele>410.42857142857144</ele><time>2026-04-26T13:59:24.999Z</time></trkpt><trkpt lat="42.15448619144156" lon="12.130675424986055"><ele>410.2857142857143</ele><time>2026-04-26T13:59:30Z</time></trkpt><trkpt lat="42.15454496964692" lon="12.130722386188737"><ele>410.14285714285717</ele><time>2026-04-26T13:59:36Z</time></trkpt><trkpt lat="42.1545971985312" lon="12.130783525192628"><ele>410.0</ele><time>2026-04-26T13:59:42Z</time></trkpt><trkpt lat="42.154646267887564" lon="12.130845925038527"><ele>410.0</ele><time>2026-04-26T13:59:47Z</time></trkpt><trkpt lat="42.15469029087946" lon="12.130912205689539"><ele>410.0</ele><time>2026-04-26T13:59:52Z</time></trkpt><trkpt lat="42.15475088342329" lon="12.13097872344372"><ele>410.0</ele><time>2026-04-26T13:59:58Z</time></trkpt><trkpt lat="42.154796655126894" lon="12.131038457322424"><ele>410.0</ele><time>2026-04-26T14:00:03Z</time></trkpt><trkpt lat="42.15485066744325" lon="12.131106125873155"><ele>410.0</ele><time>2026-04-26T14:00:07Z</time></trkpt><trkpt lat="42.154916803205914" lon="12.131181421877496"><ele>410.0</ele><time>2026-04-26T14:00:13Z</time></trkpt><trkpt lat="42.154953814404905" lon="12.131269282507361"><ele>410.0</ele><time>2026-04-26T14:00:19Z</time></trkpt><trkpt lat="42.155001944421585" lon="12.131333071288077"><ele>410.0</ele><time>2026-04-26T14:00:24Z</time></trkpt><trkpt lat="42.15504178372682" lon="12.131410096302167"><ele>410.0</ele><time>2026-04-26T14:00:29.999Z</time></trkpt><trkpt lat="42.15509421178173" lon="12.13148136266822"><ele>410.0</ele><time>2026-04-26T14:00:35.999Z</time></trkpt><trkpt lat="42.155133345422364" lon="12.131565150065615"><ele>410.0</ele><time>2026-04-26T14:00:40.999Z</time></trkpt><trkpt lat="42.15518041267923" lon="12.131630728393567"><ele>410.0</ele><time>2026-04-26T14:00:46.999Z</time></trkpt><trkpt lat="42.15520814112583" lon="12.131728254920574"><ele>410.0</ele><time>2026-04-26T14:00:52.999Z</time></trkpt><trkpt lat="42.15526524787595" lon="12.131809332174138"><ele>410.0</ele><time>2026-04-26T14:00:59.999Z</time></trkpt><trkpt lat="42.155299148102664" lon="12.131881199710499"><ele>410.0</ele><time>2026-04-26T14:01:03.999Z</time></trkpt><trkpt lat="42.155331096758545" lon="12.131960155005814"><ele>410.0</ele><time>2026-04-26T14:01:09.999Z</time></trkpt><trkpt lat="42.15537572164654" lon="12.132027394780359"><ele>410.0</ele><time>2026-04-26T14:01:14.999Z</time></trkpt><trkpt lat="42.155430913573625" lon="12.132087401065379"><ele>410.0</ele><time>2026-04-26T14:01:19.999Z</time></trkpt><trkpt lat="42.15548784533968" lon="12.13214461691724"><ele>410.0</ele><time>2026-04-26T14:01:24.999Z</time></trkpt><trkpt lat="42.155555446234246" lon="12.132217830618732"><ele>410.0</ele><time>2026-04-26T14:01:31.999Z</time></trkpt><trkpt lat="42.15560519554201" lon="12.1322699342038"><ele>410.0</ele><time>2026-04-26T14:01:36Z</time></trkpt><trkpt lat="42.155656409948136" lon="12.132336471801594"><ele>410.0</ele><time>2026-04-26T14:01:41Z</time></trkpt><trkpt lat="42.15570808064921" lon="12.13239825164058"><ele>406.0</ele><time>2026-04-26T14:01:46Z</time></trkpt><trkpt lat="42.15573874043154" lon="12.132490027204184"><ele>406.0</ele><time>2026-04-26T14:01:51Z</time></trkpt><trkpt lat="42.15578360248684" lon="12.132569523080521"><ele>406.0</ele><time>2026-04-26T14:01:56Z</time></trkpt><trkpt lat="42.15584118501486" lon="12.132615669161204"><ele>406.0</ele><time>2026-04-26T14:02:00Z</time></trkpt></trkseg></trk></gpx>